createdAt,value
2018-06-01T00:00:26.551Z,8.23
2018-06-01T00:02:54.075Z,7.93
2018-06-01T00:05:21.637Z,9.20
2018-06-01T00:07:49.184Z,8.10
2018-06-01T00:10:16.722Z,8.40
2018-06-01T00:12:44.254Z,9.97
2018-06-01T00:15:12.250Z,9.17
2018-06-01T00:17:39.760Z,9.63
2018-06-01T00:20:07.306Z,10.47
2018-06-01T00:22:35.608Z,9.43
2018-06-01T00:25:03.203Z,9.97
2018-06-01T00:27:31.461Z,9.23
2018-06-01T00:29:58.996Z,10.13
2018-06-01T00:32:26.527Z,10.10
2018-06-01T00:34:54.064Z,11.43
2018-06-01T00:37:21.608Z,9.90
2018-06-01T00:39:49.158Z,9.33
2018-06-01T00:42:16.898Z,10.77
2018-06-01T00:44:45.192Z,10.37
2018-06-01T00:47:12.716Z,9.53
2018-06-01T00:49:41.023Z,9.97
2018-06-01T00:52:08.558Z,10.20
2018-06-01T00:54:47.928Z,9.93
2018-06-01T00:57:15.455Z,10.77
2018-06-01T00:59:43.025Z,12.17
2018-06-01T01:02:10.545Z,10.10
2018-06-01T01:04:38.090Z,9.77
2018-06-01T01:07:05.633Z,10.00
2018-06-01T01:09:33.168Z,10.00
2018-06-01T01:12:00.709Z,12.17
2018-06-01T01:14:28.253Z,11.97
2018-06-01T01:16:56.575Z,11.30
2018-06-01T01:19:24.124Z,10.63
2018-06-01T01:21:51.669Z,11.60
2018-06-01T01:24:19.213Z,11.00
2018-06-01T01:26:46.739Z,12.10
2018-06-01T01:29:14.540Z,12.00
2018-06-01T01:31:42.076Z,12.50
2018-06-01T01:34:10.377Z,11.43
2018-06-01T01:36:37.903Z,12.90
2018-06-01T01:39:06.231Z,12.33
2018-06-01T01:41:34.380Z,12.77
2018-06-01T01:44:01.987Z,11.83
2018-06-01T01:46:29.526Z,11.73
2018-06-01T01:48:57.073Z,13.77
2018-06-01T01:51:24.600Z,13.33
2018-06-01T01:53:52.901Z,12.30
2018-06-01T01:56:20.442Z,11.13
2018-06-01T01:58:47.980Z,11.60
2018-06-01T02:01:15.521Z,12.97
2018-06-01T02:03:43.076Z,12.03
2018-06-01T02:06:10.608Z,13.60
2018-06-01T02:08:38.149Z,14.00
2018-06-01T02:11:05.688Z,14.43
2018-06-01T02:13:33.240Z,15.70
2018-06-01T02:16:01.554Z,14.67
2018-06-01T02:27:12.544Z,13.40
2018-06-01T02:29:40.861Z,13.83
2018-06-01T02:32:08.383Z,14.10
2018-06-01T02:34:36.693Z,15.40
2018-06-01T02:37:04.230Z,11.87
2018-06-01T02:39:31.770Z,13.20
2018-06-01T02:42:00.065Z,14.07
2018-06-01T02:44:27.610Z,12.67
2018-06-01T02:46:55.912Z,11.33
2018-06-01T02:49:23.449Z,10.60
2018-06-01T02:51:51.016Z,11.30
2018-06-01T02:54:18.577Z,12.23
2018-06-01T02:56:46.108Z,12.17
2018-06-01T02:59:13.661Z,11.50
2018-06-01T03:01:41.209Z,10.77
2018-06-01T03:04:08.764Z,10.70
2018-06-01T03:09:59.180Z,11.70
2018-06-01T03:12:26.709Z,13.07
2018-06-01T03:14:54.260Z,12.83
2018-06-01T03:17:23.732Z,12.63
2018-06-01T03:19:53.969Z,12.40
2018-06-01T03:22:21.535Z,13.27
2018-06-01T03:24:49.075Z,12.47
2018-06-01T03:27:16.611Z,13.30
2018-06-01T03:29:44.148Z,13.33
2018-06-01T03:32:11.708Z,12.20
2018-06-01T03:34:39.258Z,12.63
2018-06-01T03:37:06.789Z,14.07
2018-06-01T03:39:34.328Z,16.30
2018-06-01T03:42:01.864Z,13.93
2018-06-01T03:44:29.411Z,13.73
2018-06-01T03:46:56.936Z,14.13
2018-06-01T03:49:31.126Z,13.30
2018-06-01T03:51:58.654Z,14.37
2018-06-01T03:54:26.214Z,13.93
2018-06-01T03:56:53.769Z,13.07
2018-06-01T03:59:21.320Z,12.53
2018-06-01T04:01:48.884Z,12.20
2018-06-01T04:04:22.875Z,11.97
2018-06-01T04:06:50.429Z,11.87
2018-06-01T04:09:17.986Z,11.90
2018-06-01T04:11:45.528Z,12.60
2018-06-01T04:14:13.070Z,12.60
2018-06-01T04:16:40.618Z,11.47
2018-06-01T04:19:08.156Z,12.83
2018-06-01T04:21:35.709Z,12.73
2018-06-01T04:24:03.263Z,12.43
2018-06-01T04:26:30.815Z,13.90
2018-06-01T04:28:58.353Z,13.43
2018-06-01T04:31:25.888Z,14.93
2018-06-01T04:33:53.428Z,14.83
2018-06-01T04:36:20.980Z,14.20
2018-06-01T04:38:48.619Z,15.47
2018-06-01T04:41:16.187Z,14.53
2018-06-01T04:43:44.506Z,14.43
2018-06-01T04:46:12.051Z,14.53
2018-06-01T04:48:46.480Z,14.77
2018-06-01T04:51:14.042Z,14.63
2018-06-01T04:53:42.589Z,15.63
2018-06-01T04:56:10.918Z,15.87
2018-06-01T04:58:39.270Z,17.87
2018-06-01T05:01:06.835Z,14.73
2018-06-01T05:03:34.392Z,16.50
2018-06-01T05:06:01.945Z,18.60
2018-06-01T05:08:29.507Z,18.37
2018-06-01T05:10:57.061Z,18.37
2018-06-01T05:13:24.601Z,15.23
2018-06-01T05:15:52.925Z,25.07
2018-06-01T05:18:20.496Z,22.07
2018-06-01T05:20:48.226Z,52.07
2018-06-01T05:23:15.794Z,18.90
2018-06-01T05:25:44.265Z,30.03
2018-06-01T05:28:11.808Z,24.77
2018-06-01T05:30:39.359Z,15.43
2018-06-01T05:33:06.904Z,13.87
2018-06-01T05:35:34.531Z,17.00
2018-06-01T05:38:02.106Z,15.70
2018-06-01T05:40:29.662Z,14.53
2018-06-01T05:42:57.208Z,15.00
2018-06-01T05:45:24.745Z,14.77
2018-06-01T05:47:52.326Z,12.33
2018-06-01T05:50:19.900Z,12.83
2018-06-01T05:52:47.446Z,14.37
2018-06-01T05:55:15.039Z,13.77
2018-06-01T05:57:42.604Z,15.00
2018-06-01T06:00:10.149Z,14.43
2018-06-01T06:02:38.475Z,13.70
2018-06-01T06:05:06.063Z,13.70
2018-06-01T06:07:33.622Z,14.67
2018-06-01T06:10:01.175Z,12.43
2018-06-01T06:12:28.769Z,13.40
2018-06-01T06:14:57.071Z,14.00
2018-06-01T06:17:24.624Z,12.33
2018-06-01T06:19:52.165Z,10.27
2018-06-01T06:22:20.496Z,10.63
2018-06-01T06:24:48.025Z,11.30
2018-06-01T06:27:15.561Z,9.73
2018-06-01T06:29:43.907Z,12.40
2018-06-01T06:32:11.445Z,9.30
2018-06-01T06:34:38.991Z,8.57
2018-06-01T06:37:06.547Z,9.73
2018-06-01T06:39:34.251Z,10.43
2018-06-01T06:42:01.810Z,9.30
2018-06-01T06:44:29.352Z,9.13
2018-06-01T06:46:56.890Z,8.33
2018-06-01T06:49:24.440Z,9.60
2018-06-01T06:51:52.017Z,9.40
2018-06-01T06:54:28.627Z,8.63
2018-06-01T06:57:05.908Z,7.97
2018-06-01T06:59:34.252Z,8.47
2018-06-01T07:02:01.803Z,9.33
2018-06-01T07:04:29.340Z,9.53
2018-06-01T07:06:56.886Z,9.17
2018-06-01T07:09:24.440Z,10.00
2018-06-01T07:11:51.967Z,11.60
2018-06-01T07:14:19.508Z,8.93
2018-06-01T07:16:47.051Z,9.60
2018-06-01T07:19:14.621Z,10.10
2018-06-01T07:21:42.160Z,7.53
2018-06-01T07:24:09.724Z,8.60
2018-06-01T07:26:37.283Z,7.80
2018-06-01T07:29:04.823Z,7.30
2018-06-01T07:31:32.352Z,7.87
2018-06-01T07:34:00.071Z,7.13
2018-06-01T07:36:27.621Z,6.63
2018-06-01T07:38:55.172Z,6.63
2018-06-01T07:41:22.710Z,6.57
2018-06-01T07:43:50.289Z,6.37
2018-06-01T07:46:17.852Z,5.90
2018-06-01T07:48:45.396Z,5.27
2018-06-01T07:51:12.930Z,5.87
2018-06-01T07:53:41.258Z,5.70
2018-06-01T07:56:08.800Z,6.23
2018-06-01T07:58:36.342Z,5.83
2018-06-01T08:01:03.883Z,5.97
2018-06-01T08:03:32.200Z,5.83
2018-06-01T08:05:59.753Z,6.43
2018-06-01T08:08:27.317Z,6.77
2018-06-01T08:10:54.855Z,7.03
2018-06-01T08:13:22.392Z,7.27
2018-06-01T08:15:50.705Z,6.73
2018-06-01T08:18:18.284Z,7.47
2018-06-01T08:20:45.823Z,6.50
2018-06-01T08:23:13.376Z,6.20
2018-06-01T08:25:40.924Z,6.83
2018-06-01T08:28:08.460Z,5.50
2018-06-01T08:30:36.768Z,6.30
2018-06-01T08:33:04.321Z,5.60
2018-06-01T08:35:31.880Z,6.17
2018-06-01T08:37:59.406Z,6.13
2018-06-01T08:40:27.775Z,6.43
2018-06-01T08:42:55.331Z,5.37
2018-06-01T08:45:22.922Z,5.77
2018-06-01T08:47:50.558Z,5.70
2018-06-01T08:50:18.119Z,5.43
2018-06-01T08:52:46.449Z,5.67
2018-06-01T08:55:14.010Z,5.87
2018-06-01T08:57:41.574Z,6.07
2018-06-01T09:00:12.471Z,6.97
2018-06-01T09:02:39.996Z,6.10
2018-06-01T09:05:07.544Z,6.73
2018-06-01T09:07:35.075Z,6.60
2018-06-01T09:10:02.676Z,6.53
2018-06-01T09:12:30.252Z,6.50
2018-06-01T09:14:57.904Z,6.30
2018-06-01T09:17:25.956Z,7.23
2018-06-01T09:19:53.489Z,6.27
2018-06-01T09:22:21.026Z,5.77
2018-06-01T09:24:48.576Z,6.00
2018-06-01T09:27:16.168Z,5.50
2018-06-01T09:29:43.733Z,5.50
2018-06-01T09:32:11.267Z,5.00
2018-06-01T09:34:38.826Z,5.90
2018-06-01T09:37:06.351Z,5.47
2018-06-01T09:39:33.892Z,5.80
2018-06-01T09:42:01.440Z,5.70
2018-06-01T09:44:28.966Z,4.87
2018-06-01T09:46:56.511Z,4.40
2018-06-01T09:49:24.051Z,4.80
2018-06-01T09:51:52.353Z,4.37
2018-06-01T09:54:19.902Z,4.47
2018-06-01T09:56:47.434Z,4.33
2018-06-01T09:59:15.733Z,4.63
2018-06-01T10:01:43.267Z,4.37
2018-06-01T10:04:11.571Z,4.13
2018-06-01T10:06:39.114Z,4.43
2018-06-01T10:09:06.660Z,4.10
2018-06-01T10:11:35.616Z,4.20
2018-06-01T10:14:03.147Z,4.27
2018-06-01T10:16:30.705Z,4.13
2018-06-01T10:18:58.247Z,3.80
2018-06-01T10:21:25.777Z,4.10
2018-06-01T10:23:53.326Z,4.47
2018-06-01T10:26:20.864Z,3.80
2018-06-01T10:28:48.396Z,4.10
2018-06-01T10:31:15.928Z,4.20
2018-06-01T10:33:43.464Z,4.53
2018-06-01T10:36:11.000Z,4.60
2018-06-01T10:38:38.528Z,3.73
2018-06-01T10:41:06.082Z,3.87
2018-06-01T10:43:33.613Z,3.43
2018-06-01T10:46:01.908Z,3.03
2018-06-01T10:48:29.691Z,2.80
2018-06-01T10:50:57.237Z,3.70
2018-06-01T10:53:24.746Z,3.10
2018-06-01T10:55:52.294Z,3.47
2018-06-01T10:58:19.840Z,3.13
2018-06-01T11:00:47.399Z,3.17
2018-06-01T11:03:14.929Z,3.10
2018-06-01T11:05:42.460Z,2.97
2018-06-01T11:08:09.999Z,3.27
2018-06-01T11:10:38.284Z,3.47
2018-06-01T11:13:06.579Z,3.53
2018-06-01T11:15:34.116Z,3.10
2018-06-01T11:18:01.660Z,3.00
2018-06-01T11:20:29.215Z,3.20
2018-06-01T11:22:56.757Z,3.00
2018-06-01T11:25:24.281Z,3.23
2018-06-01T11:27:51.811Z,3.07
2018-06-01T11:30:20.124Z,3.20
2018-06-01T11:32:47.660Z,3.00
2018-06-01T11:35:15.183Z,3.40
2018-06-01T11:37:42.712Z,3.40
2018-06-01T11:40:10.233Z,3.73
2018-06-01T11:42:37.786Z,4.23
2018-06-01T11:45:06.094Z,3.93
2018-06-01T11:47:33.624Z,3.53
2018-06-01T11:50:01.142Z,3.60
2018-06-01T11:52:28.685Z,3.90
2018-06-01T11:54:56.217Z,3.90
2018-06-01T11:57:23.754Z,3.40
2018-06-01T11:59:52.051Z,3.60
2018-06-01T12:02:19.600Z,4.07
2018-06-01T12:04:47.137Z,4.20
2018-06-01T12:07:15.603Z,4.40
2018-06-01T12:09:43.127Z,4.50
2018-06-01T12:12:10.652Z,4.63
2018-06-01T12:14:38.188Z,4.20
2018-06-01T12:17:22.075Z,4.87
2018-06-01T12:19:49.595Z,5.10
2018-06-01T12:22:17.906Z,4.93
2018-06-01T12:24:45.456Z,4.83
2018-06-01T12:27:12.989Z,5.30
2018-06-01T12:29:41.301Z,4.73
2018-06-01T12:32:08.861Z,5.10
2018-06-01T12:34:36.409Z,4.83
2018-06-01T12:37:03.948Z,5.20
2018-06-01T12:39:31.481Z,5.07
2018-06-01T12:41:59.026Z,5.23
2018-06-01T12:44:26.579Z,4.90
2018-06-01T12:46:54.128Z,5.13
2018-06-01T12:49:21.669Z,5.07
2018-06-01T12:51:49.197Z,4.60
2018-06-01T12:54:16.773Z,5.27
2018-06-01T12:56:44.372Z,4.83
2018-06-01T12:59:11.916Z,5.50
2018-06-01T13:01:40.219Z,5.17
2018-06-01T13:04:07.772Z,4.63
2018-06-01T13:06:35.309Z,4.07
2018-06-01T13:09:02.844Z,3.90
2018-06-01T13:11:30.367Z,4.97
2018-06-01T13:13:58.669Z,4.10
2018-06-01T13:16:26.956Z,3.70
2018-06-01T13:18:54.500Z,3.90
2018-06-01T13:21:22.035Z,3.33
2018-06-01T13:23:49.582Z,3.40
2018-06-01T13:26:17.102Z,3.40
2018-06-01T13:28:44.638Z,3.27
2018-06-01T13:31:12.190Z,3.40
2018-06-01T13:33:39.724Z,3.20
2018-06-01T13:36:07.273Z,3.27
2018-06-01T13:38:34.808Z,2.90
2018-06-01T13:41:02.338Z,2.90
2018-06-01T13:43:29.867Z,3.10
2018-06-01T13:45:58.166Z,3.17
2018-06-01T13:48:25.707Z,2.80
2018-06-01T13:50:54.001Z,2.70
2018-06-01T13:53:21.535Z,2.87
2018-06-01T13:55:50.328Z,2.57
2018-06-01T13:58:18.688Z,2.60
2018-06-01T14:00:46.217Z,2.50
2018-06-01T14:03:43.915Z,2.80
2018-06-01T14:06:11.754Z,2.50
2018-06-01T14:08:39.301Z,2.30
2018-06-01T14:11:06.839Z,2.63
2018-06-01T14:13:34.363Z,2.30
2018-06-01T14:16:02.659Z,2.60
2018-06-01T14:18:30.198Z,2.20
2018-06-01T14:20:58.516Z,2.03
2018-06-01T14:23:26.043Z,2.13
2018-06-01T14:25:53.576Z,2.10
2018-06-01T14:28:21.117Z,1.90
2018-06-01T14:30:48.660Z,1.90
2018-06-01T14:33:16.186Z,1.70
2018-06-01T14:35:43.715Z,2.07
2018-06-01T14:38:11.263Z,1.60
2018-06-01T14:40:38.844Z,1.70
2018-06-01T14:43:06.381Z,1.60
2018-06-01T14:45:33.907Z,1.60
2018-06-01T14:48:01.446Z,1.50
2018-06-01T14:50:28.982Z,1.50
2018-06-01T14:52:57.278Z,1.63
2018-06-01T14:55:24.815Z,1.40
2018-06-01T14:57:53.123Z,1.40
2018-06-01T15:00:21.676Z,1.40
2018-06-01T15:02:50.000Z,1.30
2018-06-01T15:05:22.017Z,1.30
2018-06-01T15:07:50.349Z,1.50
2018-06-01T15:10:17.877Z,1.10
2018-06-01T15:12:45.447Z,1.93
2018-06-01T15:15:12.982Z,1.43
2018-06-01T15:17:40.516Z,1.80
2018-06-01T15:20:08.800Z,2.00
2018-06-01T15:22:36.356Z,1.80
2018-06-01T15:25:04.692Z,2.13
2018-06-01T15:27:32.230Z,1.80
2018-06-01T15:29:59.759Z,2.50
2018-06-01T15:32:27.301Z,4.40
2018-06-01T15:34:55.594Z,2.47
2018-06-01T15:37:23.143Z,3.07
2018-06-01T15:39:51.416Z,1.60
2018-06-01T15:42:19.781Z,3.30
2018-06-01T15:44:47.320Z,2.70
2018-06-01T15:47:14.847Z,3.83
2018-06-01T15:49:42.384Z,2.77
2018-06-01T15:52:09.915Z,3.90
2018-06-01T15:54:37.453Z,3.93
2018-06-01T15:57:04.994Z,1.60
2018-06-01T15:59:32.531Z,2.20
2018-06-01T16:02:00.072Z,3.20
2018-06-01T16:04:27.611Z,2.53
2018-06-01T16:06:55.167Z,2.03
2018-06-01T16:09:22.702Z,2.67
2018-06-01T16:11:50.241Z,3.13
2018-06-01T16:14:36.465Z,4.60
2018-06-01T16:17:03.983Z,3.10
2018-06-01T16:19:31.518Z,3.07
2018-06-01T16:21:59.816Z,2.67
2018-06-01T16:24:27.355Z,2.70
2018-06-01T16:26:54.880Z,2.50
2018-06-01T16:29:22.423Z,2.30
2018-06-01T16:31:49.964Z,2.50
2018-06-01T16:34:17.503Z,2.97
2018-06-01T16:36:45.072Z,2.70
2018-06-01T16:39:12.619Z,2.80
2018-06-01T16:41:40.149Z,2.80
2018-06-01T16:44:08.465Z,2.40
2018-06-01T16:46:35.983Z,2.67
2018-06-01T16:49:04.289Z,3.07
2018-06-01T16:51:31.818Z,2.97
2018-06-01T16:54:00.128Z,2.60
2018-06-01T16:56:27.659Z,2.83
2018-06-01T16:58:55.985Z,2.50
2018-06-01T17:01:23.522Z,2.27
2018-06-01T17:03:51.116Z,2.70
2018-06-01T17:06:18.635Z,2.63
2018-06-01T17:08:46.200Z,3.13
2018-06-01T17:11:13.750Z,2.80
2018-06-01T17:13:41.288Z,2.60
2018-06-01T17:16:08.811Z,2.83
2018-06-01T17:18:36.700Z,2.87
2018-06-01T17:21:04.229Z,3.37
2018-06-01T17:23:31.761Z,3.03
2018-06-01T17:25:59.295Z,2.90
2018-06-01T17:28:27.570Z,2.90
2018-06-01T17:30:55.096Z,3.00
2018-06-01T17:33:22.626Z,3.20
2018-06-01T17:35:50.166Z,3.50
2018-06-01T17:38:17.704Z,3.73
2018-06-01T17:40:45.256Z,3.87
2018-06-01T17:43:13.561Z,3.80
2018-06-01T17:45:41.090Z,3.50
2018-06-01T17:48:09.398Z,4.07
2018-06-01T17:50:37.011Z,4.50
2018-06-01T17:53:04.523Z,4.27
2018-06-01T17:55:32.062Z,3.27
2018-06-01T17:57:59.631Z,3.67
2018-06-01T18:00:27.179Z,4.27
2018-06-01T18:02:54.718Z,3.87
2018-06-01T18:05:23.038Z,4.63
2018-06-01T18:07:50.568Z,4.90
2018-06-01T18:10:18.100Z,5.57
2018-06-01T18:12:46.419Z,4.60
2018-06-01T18:15:13.971Z,5.40
2018-06-01T18:17:41.530Z,5.43
2018-06-01T18:20:09.092Z,6.20
2018-06-01T18:22:36.734Z,5.83
2018-06-01T18:25:04.922Z,5.67
2018-06-01T18:27:32.460Z,6.90
2018-06-01T18:29:59.996Z,5.10
2018-06-01T18:32:27.562Z,6.20
2018-06-01T18:34:55.875Z,6.03
2018-06-01T18:37:23.420Z,6.90
2018-06-01T18:39:50.970Z,6.97
2018-06-01T18:42:18.513Z,7.27
2018-06-01T18:44:46.827Z,7.03
2018-06-01T18:47:14.366Z,7.13
2018-06-01T18:49:41.950Z,6.50
2018-06-01T18:52:09.480Z,6.13
2018-06-01T18:54:37.024Z,6.80
2018-06-01T18:57:05.317Z,6.73
2018-06-01T18:59:32.845Z,6.20
2018-06-01T19:02:00.433Z,6.57
2018-06-01T19:04:27.924Z,6.63
2018-06-01T19:06:55.458Z,6.80
2018-06-01T19:09:23.008Z,7.30
2018-06-01T19:11:50.576Z,7.77
2018-06-01T19:14:18.154Z,6.97
2018-06-01T19:16:45.690Z,6.90
2018-06-01T19:19:13.220Z,7.00
2018-06-01T19:21:40.738Z,6.90
2018-06-01T19:24:08.317Z,7.00
2018-06-01T19:26:35.848Z,6.53
2018-06-01T19:29:03.417Z,6.40
2018-06-01T19:31:30.899Z,6.20
2018-06-01T19:33:58.443Z,6.40
2018-06-01T19:36:25.977Z,5.93
2018-06-01T19:38:53.523Z,5.63
2018-06-01T19:41:21.042Z,6.10
2018-06-01T19:43:49.376Z,5.63
2018-06-01T19:46:16.932Z,5.63
2018-06-01T19:48:44.623Z,7.70
2018-06-01T19:51:12.163Z,6.77
2018-06-01T19:53:39.703Z,7.27
2018-06-01T19:56:07.230Z,6.77
2018-06-01T19:58:35.544Z,8.00
2018-06-01T20:01:03.093Z,7.33
2018-06-01T20:03:30.624Z,9.13
2018-06-01T20:05:58.155Z,8.53
2018-06-01T20:08:25.706Z,8.00
2018-06-01T20:10:53.264Z,7.43
2018-06-01T20:13:20.805Z,7.90
2018-06-01T20:15:48.338Z,6.93
2018-06-01T20:18:15.921Z,8.03
2018-06-01T20:20:43.466Z,7.73
2018-06-01T20:23:11.056Z,7.23
2018-06-01T20:25:38.680Z,7.23
2018-06-01T20:28:06.205Z,8.57
2018-06-01T20:30:34.510Z,8.43
2018-06-01T20:33:02.039Z,8.10
2018-06-01T20:35:29.583Z,7.83
2018-06-01T20:37:57.110Z,8.80
2018-06-01T20:40:24.664Z,9.97
2018-06-01T20:42:52.207Z,8.63
2018-06-01T20:45:19.739Z,8.30
2018-06-01T20:47:47.271Z,7.47
2018-06-01T20:50:14.833Z,8.97
2018-06-01T20:52:42.359Z,8.53
2018-06-01T20:55:09.906Z,7.17
2018-06-01T20:57:37.459Z,7.57
2018-06-01T21:00:05.023Z,8.20
2018-06-01T21:02:32.574Z,8.37
2018-06-01T21:05:00.136Z,8.10
2018-06-01T21:07:27.656Z,8.23
2018-06-01T21:09:55.955Z,8.37
2018-06-01T21:12:23.516Z,8.90
2018-06-01T21:14:51.055Z,9.13
2018-06-01T21:17:18.600Z,10.17
2018-06-01T21:19:46.131Z,10.93
2018-06-01T21:22:13.675Z,11.03
2018-06-01T21:24:41.216Z,10.20
2018-06-01T21:27:09.463Z,10.43
2018-06-01T21:29:37.772Z,11.57
2018-06-01T21:32:05.321Z,12.30
2018-06-01T21:34:32.864Z,11.37
2018-06-01T21:37:00.409Z,12.87
2018-06-01T21:39:27.951Z,13.40
2018-06-01T21:41:55.503Z,12.50
2018-06-01T21:44:23.048Z,12.83
2018-06-01T21:46:50.585Z,13.37
2018-06-01T21:49:18.140Z,14.10
2018-06-01T21:51:45.691Z,14.30
2018-06-01T21:54:13.240Z,14.93
2018-06-01T21:56:40.781Z,15.00
2018-06-01T21:59:09.094Z,13.60
2018-06-01T22:01:36.655Z,14.23
2018-06-01T22:04:04.292Z,15.00
2018-06-01T22:06:31.816Z,14.13
2018-06-01T22:08:59.364Z,15.00
2018-06-01T22:11:26.903Z,14.43
2018-06-01T22:13:54.451Z,15.17
2018-06-01T22:16:22.054Z,15.63
2018-06-01T22:18:49.608Z,15.70
2018-06-01T22:21:17.139Z,14.40
2018-06-01T22:23:44.684Z,14.83
2018-06-01T22:26:12.235Z,15.50
2018-06-01T22:28:39.782Z,14.60
2018-06-01T22:31:09.280Z,16.43
2018-06-01T22:33:37.586Z,15.13
2018-06-01T22:36:05.146Z,14.60
2018-06-01T22:38:32.711Z,16.93
2018-06-01T22:41:00.256Z,16.70
2018-06-01T22:43:27.797Z,17.33
2018-06-01T22:45:55.351Z,17.70
2018-06-01T22:48:22.899Z,16.53
2018-06-01T22:50:51.429Z,17.37
2018-06-01T22:53:19.011Z,18.87
2018-06-01T22:55:47.536Z,20.03
2018-06-01T22:58:15.155Z,19.43
2018-06-01T23:00:42.680Z,19.97
2018-06-01T23:03:10.226Z,19.10
2018-06-01T23:05:37.787Z,19.23
2018-06-01T23:08:05.312Z,19.07
2018-06-01T23:10:32.856Z,20.47
2018-06-01T23:13:00.397Z,19.43
2018-06-01T23:15:27.948Z,18.43
2018-06-01T23:17:55.496Z,18.73
2018-06-01T23:20:23.059Z,18.70
2018-06-01T23:22:50.623Z,17.73
2018-06-01T23:25:18.174Z,17.87
2018-06-01T23:27:45.730Z,18.07
2018-06-01T23:30:13.278Z,19.87
2018-06-01T23:32:40.832Z,20.40
2018-06-01T23:35:08.393Z,21.57
2018-06-01T23:37:35.963Z,20.80
2018-06-01T23:40:03.532Z,20.77
2018-06-01T23:42:31.071Z,23.03
2018-06-01T23:44:58.638Z,19.73
2018-06-01T23:47:26.210Z,26.27
2018-06-01T23:49:53.800Z,19.83
2018-06-01T23:52:21.361Z,20.23
2018-06-01T23:54:49.697Z,18.10
2018-06-01T23:57:17.265Z,18.60
2018-06-01T23:59:44.830Z,21.33
